Time;durP1;ratioP1;P1;durP2;ratioP2;P2;SDS_P1;SDS_P2;PMS_P1;PMS_P2;Temp;Humidity;BMP_temperature;BMP_pressure;BME280_temperature;BME280_humidity;BME280_pressure;Samples;Min_cycle;Max_cycle;Signal;HPM_P1;HPM_P2
2021/04/11 00:02:05;;;;;;;5.05;1.75;;;10.90;69.40;;;;;;5025642;28;19932;-87
2021/04/11 00:04:32;;;;;;;4.00;1.95;;;10.90;70.40;;;;;;5013755;28;20193;-87
2021/04/11 00:06:58;;;;;;;5.35;1.58;;;10.90;70.80;;;;;;5027120;28;20065;-87
2021/04/11 00:09:30;;;;;;;2.90;1.70;;;10.80;71.90;;;;;;5023997;28;20102;-88
2021/04/11 00:11:57;;;;;;;1.98;1.40;;;10.70;72.80;;;;;;5004873;28;20062;-88
2021/04/11 00:14:24;;;;;;;3.17;1.80;;;10.60;73.70;;;;;;5040759;28;20057;-89
2021/04/11 00:16:52;;;;;;;2.35;1.63;;;10.60;74.30;;;;;;5016213;28;20046;-89
2021/04/11 00:19:19;;;;;;;4.03;1.58;;;10.60;75.30;;;;;;5007663;28;20098;-89
2021/04/11 00:21:46;;;;;;;3.13;1.70;;;10.50;76.50;;;;;;5015962;28;20045;-89
2021/04/11 00:24:13;;;;;;;1.98;1.30;;;10.50;77.80;;;;;;5016146;28;20056;-88
2021/04/11 00:26:41;;;;;;;1.50;1.40;;;10.40;78.90;;;;;;5014923;28;20420;-90
2021/04/11 00:29:08;;;;;;;2.20;1.63;;;10.40;79.50;;;;;;4995882;28;20383;-87
2021/04/11 00:31:35;;;;;;;2.30;1.58;;;10.40;81.20;;;;;;5012228;28;20046;-89
2021/04/11 00:34:09;;;;;;;2.30;1.67;;;10.30;82.00;;;;;;4997856;28;20367;-89
2021/04/11 00:36:35;;;;;;;2.38;1.73;;;10.30;82.40;;;;;;5017129;28;20412;-88
2021/04/11 00:39:10;;;;;;;4.07;1.70;;;10.30;84.40;;;;;;5020093;28;20042;-88
2021/04/11 00:41:44;;;;;;;3.15;1.90;;;10.30;84.00;;;;;;5012557;28;20390;-89
2021/04/11 00:44:12;;;;;;;4.30;2.13;;;10.20;85.30;;;;;;5013630;28;20054;-90
2021/04/11 00:46:47;;;;;;;3.08;2.10;;;10.20;86.90;;;;;;4995974;28;20112;-89
2021/04/11 00:49:37;;;;;;;2.97;1.90;;;10.20;87.50;;;;;;5005969;28;20053;-89
2021/04/11 00:52:09;;;;;;;3.33;1.58;;;10.10;89.10;;;;;;4996498;28;20082;-89
2021/04/11 00:54:36;;;;;;;2.40;1.90;;;10.10;90.50;;;;;;5013261;28;20069;-89
2021/04/11 00:57:07;;;;;;;3.25;2.00;;;10.10;90.00;;;;;;5002965;28;20127;-90
2021/04/11 00:59:34;;;;;;;2.63;1.92;;;10.20;89.70;;;;;;5017599;28;20061;-87
2021/04/11 01:02:04;;;;;;;5.57;2.35;;;10.20;89.50;;;;;;5014475;28;20038;-89
2021/04/11 01:04:31;;;;;;;4.72;2.00;;;10.20;89.60;;;;;;5020518;28;20139;-88
2021/04/11 01:07:11;;;;;;;4.32;1.42;;;10.20;90.50;;;;;;4996134;28;20053;-88
2021/04/11 01:09:46;;;;;;;4.28;1.70;;;10.20;91.00;;;;;;5002313;28;20081;-89
2021/04/11 01:12:17;;;;;;;3.30;2.05;;;10.20;90.40;;;;;;5006969;28;20069;-88
2021/04/11 01:14:45;;;;;;;3.30;1.60;;;10.20;90.60;;;;;;4990123;28;20046;-89
2021/04/11 01:17:17;;;;;;;5.55;2.10;;;10.20;91.00;;;;;;5016676;28;20046;-89
2021/04/11 01:19:50;;;;;;;4.68;1.70;;;10.20;90.60;;;;;;5022213;28;20161;-90
2021/04/11 01:22:22;;;;;;;3.35;1.90;;;10.20;90.90;;;;;;5015154;28;20062;-90
2021/04/11 01:24:59;;;;;;;2.95;2.00;;;10.20;91.50;;;;;;5018234;28;20053;-89
2021/04/11 01:27:36;;;;;;;2.33;1.80;;;10.20;92.40;;;;;;5000475;28;20366;-90
2021/04/11 01:30:20;;;;;;;4.85;1.83;;;10.10;92.30;;;;;;5000033;28;20050;-89
2021/04/11 01:32:49;;;;;;;2.58;1.70;;;10.20;92.70;;;;;;4994347;28;20054;-89
2021/04/11 01:35:24;;;;;;;3.08;1.67;;;10.20;92.30;;;;;;5025670;28;20192;-89
2021/04/11 01:37:52;;;;;;;2.28;1.67;;;10.20;92.20;;;;;;5017813;28;20049;-89
2021/04/11 01:40:28;;;;;;;3.40;1.85;;;10.20;92.70;;;;;;5006648;28;20085;-89
2021/04/11 01:42:54;;;;;;;5.72;2.00;;;10.20;92.40;;;;;;5001353;28;20053;-89
2021/04/11 01:45:22;;;;;;;3.45;1.75;;;10.30;92.70;;;;;;5015171;28;20073;-90
2021/04/11 01:47:52;;;;;;;2.42;1.80;;;10.30;92.50;;;;;;5021839;28;20100;-89
2021/04/11 01:50:23;;;;;;;3.30;1.60;;;10.40;92.00;;;;;;5008038;28;20050;-88
2021/04/11 01:52:53;;;;;;;3.40;2.00;;;10.40;91.90;;;;;;5019033;28;20042;-90
2021/04/11 01:55:24;;;;;;;2.08;1.55;;;10.40;92.10;;;;;;5010185;28;20056;-90
2021/04/11 01:58:04;;;;;;;4.57;1.90;;;10.40;92.10;;;;;;5000199;28;20042;-87
2021/04/11 02:00:50;;;;;;;2.72;1.90;;;10.40;92.20;;;;;;5022353;28;20058;-89
2021/04/11 02:03:19;;;;;;;4.75;1.80;;;10.40;92.00;;;;;;5028319;28;20072;-89
2021/04/11 02:05:50;;;;;;;3.47;1.70;;;10.40;92.90;;;;;;5033623;28;20085;-89
2021/04/11 02:08:22;;;;;;;2.47;1.80;;;10.30;92.30;;;;;;5016312;28;20030;-90
2021/04/11 02:10:56;;;;;;;4.40;2.10;;;10.30;92.70;;;;;;5025297;28;20406;-89
2021/04/11 02:13:36;;;;;;;5.38;1.80;;;10.30;93.20;;;;;;5009676;28;20157;-89
2021/04/11 02:16:07;;;;;;;4.82;1.75;;;10.20;93.40;;;;;;4995299;28;20058;-90
2021/04/11 02:18:36;;;;;;;1.60;1.40;;;10.20;93.30;;;;;;5002178;28;20046;-88
2021/04/11 02:21:11;;;;;;;2.90;1.52;;;10.20;93.30;;;;;;5000458;28;20125;-88
2021/04/11 02:23:39;;;;;;;4.45;2.30;;;10.20;93.00;;;;;;5004998;28;20141;-88
2021/04/11 02:26:12;;;;;;;5.28;1.90;;;10.20;92.90;;;;;;4999630;28;20042;-89
2021/04/11 02:28:41;;;;;;;2.55;1.60;;;10.30;92.80;;;;;;5003388;28;20045;-90
2021/04/11 02:31:17;;;;;;;2.58;1.50;;;10.30;93.30;;;;;;5000720;28;20053;-89
2021/04/11 02:34:08;;;;;;;4.60;1.70;;;10.30;92.60;;;;;;5028041;28;20041;-90
2021/04/11 02:36:42;;;;;;;2.95;1.67;;;10.30;93.70;;;;;;4998052;28;20089;-88
2021/04/11 02:39:20;;;;;;;3.08;1.50;;;10.30;93.90;;;;;;5015754;28;20111;-89
2021/04/11 02:41:52;;;;;;;2.95;1.65;;;10.20;93.90;;;;;;4999089;28;20049;-89
2021/04/11 02:44:37;;;;;;;6.65;1.77;;;10.20;94.00;;;;;;4999995;28;20052;-89
2021/04/11 02:47:13;;;;;;;2.97;1.85;;;10.20;94.50;;;;;;5015696;28;20156;-89
2021/04/11 02:49:42;;;;;;;3.58;1.70;;;10.10;94.50;;;;;;5003261;28;20069;-88
2021/04/11 02:52:21;;;;;;;2.60;1.50;;;10.10;94.40;;;;;;4997406;28;20152;-89
2021/04/11 02:54:48;;;;;;;3.08;1.88;;;10.10;94.50;;;;;;5017258;28;20138;-91
2021/04/11 02:57:17;;;;;;;3.45;1.85;;;10.20;94.80;;;;;;5014287;28;20053;-89
2021/04/11 02:59:45;;;;;;;4.85;2.08;;;10.20;93.90;;;;;;5005241;28;20058;-89
2021/04/11 03:02:19;;;;;;;2.33;1.50;;;10.20;95.20;;;;;;4994794;28;20092;-90
2021/04/11 03:04:46;;;;;;;2.53;1.48;;;10.10;94.70;;;;;;5001078;28;20080;-88
2021/04/11 03:07:39;;;;;;;3.08;1.80;;;10.10;95.00;;;;;;5003432;28;20049;-88
2021/04/11 03:10:12;;;;;;;4.47;1.75;;;10.00;95.90;;;;;;5004467;28;20127;-90
2021/04/11 03:12:39;;;;;;;3.47;2.22;;;10.00;96.10;;;;;;5001313;28;20126;-88
2021/04/11 03:15:11;;;;;;;1.85;1.73;;;9.90;96.00;;;;;;5019129;28;20188;-88
2021/04/11 03:17:42;;;;;;;4.78;2.00;;;9.90;96.40;;;;;;5033461;28;20058;-89
2021/04/11 03:20:15;;;;;;;4.30;1.60;;;9.80;97.30;;;;;;5020792;28;20038;-89
2021/04/11 03:22:42;;;;;;;3.63;2.00;;;9.80;98.30;;;;;;5025948;28;20072;-89
2021/04/11 03:25:13;;;;;;;3.67;1.88;;;9.70;98.40;;;;;;5020471;28;20093;-90
2021/04/11 03:28:09;;;;;;;2.10;1.60;;;9.70;98.20;;;;;;5029495;28;20065;-88
2021/04/11 03:30:39;;;;;;;3.28;1.65;;;9.70;97.90;;;;;;5019477;28;20128;-89
2021/04/11 03:33:15;;;;;;;3.85;2.00;;;9.70;97.90;;;;;;5009974;28;20054;-90
2021/04/11 03:35:47;;;;;;;2.55;1.67;;;9.70;98.20;;;;;;4997151;28;20046;-89
2021/04/11 03:38:24;;;;;;;2.28;1.80;;;9.70;98.10;;;;;;5013047;28;20133;-88
2021/04/11 03:40:57;;;;;;;3.60;1.40;;;9.70;99.10;;;;;;5019487;28;20141;-88
2021/04/11 03:43:41;;;;;;;2.00;1.60;;;9.70;98.90;;;;;;5007034;28;20057;-88
2021/04/11 03:46:30;;;;;;;3.42;1.58;;;9.70;99.30;;;;;;5007787;28;20253;-88
2021/04/11 03:49:09;;;;;;;2.22;1.55;;;9.70;99.20;;;;;;4985606;28;20439;-90
2021/04/11 03:51:43;;;;;;;2.03;1.63;;;9.80;99.20;;;;;;5004443;28;20043;-89
2021/04/11 03:54:21;;;;;;;3.92;1.75;;;9.80;99.10;;;;;;5011979;28;20175;-90
2021/04/11 03:57:13;;;;;;;6.20;2.00;;;9.90;99.90;;;;;;5004000;28;20145;-91
2021/04/11 03:59:50;;;;;;;4.60;1.88;;;9.90;98.80;;;;;;5014386;28;20373;-88
2021/04/11 04:02:24;;;;;;;3.78;1.50;;;10.00;98.40;;;;;;4998821;28;20037;-89
2021/04/11 04:04:55;;;;;;;2.50;1.45;;;10.10;98.40;;;;;;5001350;28;20143;-88
2021/04/11 04:07:50;;;;;;;3.88;1.65;;;10.20;98.00;;;;;;5000578;28;20081;-89
2021/04/11 04:10:24;;;;;;;3.30;1.40;;;10.30;96.80;;;;;;5029913;28;20053;-88
2021/04/11 04:13:07;;;;;;;4.18;1.50;;;10.30;96.80;;;;;;5013489;28;20141;-89
2021/04/11 04:15:49;;;;;;;2.53;1.58;;;10.30;96.70;;;;;;5016904;28;20459;-89
2021/04/11 04:18:54;;;;;;;2.25;1.83;;;10.20;97.60;;;;;;5011073;28;20125;-89
2021/04/11 04:21:58;;;;;;;2.35;1.50;;;10.20;97.90;;;;;;4995427;28;20053;-87
2021/04/11 04:24:48;;;;;;;2.20;1.50;;;10.10;98.80;;;;;;5016479;28;20487;-88
2021/04/11 04:27:39;;;;;;;3.22;2.10;;;10.00;99.40;;;;;;4997093;28;20466;-89
2021/04/11 04:30:13;;;;;;;5.75;1.75;;;10.00;99.70;;;;;;5019932;28;20054;-90
2021/04/11 04:33:14;;;;;;;6.80;2.28;;;10.00;99.60;;;;;;5026910;28;20447;-87
2021/04/11 04:35:46;;;;;;;2.80;1.90;;;10.00;99.80;;;;;;5009291;28;20053;-90
2021/04/11 04:38:50;;;;;;;2.63;1.77;;;10.00;99.90;;;;;;5028132;28;20117;-91
2021/04/11 04:41:22;;;;;;;3.55;2.15;;;9.90;99.90;;;;;;5015795;28;20482;-89
2021/04/11 04:44:07;;;;;;;4.97;1.70;;;9.80;99.90;;;;;;5017146;28;20115;-90
2021/04/11 04:46:47;;;;;;;2.35;1.70;;;9.70;99.90;;;;;;5016100;28;20054;-89
2021/04/11 04:49:29;;;;;;;4.90;1.90;;;9.60;99.90;;;;;;5023889;28;20057;-88
2021/04/11 04:52:29;;;;;;;3.45;2.20;;;9.50;99.90;;;;;;5019901;28;20077;-89
2021/04/11 04:55:10;;;;;;;5.57;2.10;;;9.40;99.90;;;;;;5020623;28;20050;-89
2021/04/11 04:57:38;;;;;;;4.30;1.80;;;9.40;99.90;;;;;;5038089;28;20060;-90
2021/04/11 05:00:28;;;;;;;2.28;1.70;;;9.40;99.90;;;;;;5032088;28;20164;-89
2021/04/11 05:03:17;;;;;;;3.83;2.10;;;9.50;99.90;;;;;;5030674;28;20064;-89
2021/04/11 05:06:10;;;;;;;3.40;2.28;;;9.50;99.90;;;;;;4989980;28;20052;-89
2021/04/11 05:08:48;;;;;;;2.95;1.63;;;9.50;99.90;;;;;;5016062;28;20046;-89
2021/04/11 05:11:26;;;;;;;3.67;2.03;;;9.60;99.90;;;;;;5022825;28;20067;-87
2021/04/11 05:14:04;;;;;;;2.42;1.80;;;9.60;99.90;;;;;;5022396;28;20078;-88
2021/04/11 05:16:45;;;;;;;2.08;1.80;;;9.60;99.90;;;;;;5019144;28;20114;-88
2021/04/11 05:19:30;;;;;;;4.55;1.75;;;9.70;99.90;;;;;;5037167;28;20048;-89
2021/04/11 05:22:07;;;;;;;2.15;1.60;;;9.80;99.90;;;;;;5049955;28;20095;-88
2021/04/11 05:24:43;;;;;;;2.13;1.92;;;9.80;99.90;;;;;;5034471;28;20053;-89
2021/04/11 05:27:31;;;;;;;3.30;1.90;;;9.80;99.90;;;;;;5026962;28;20152;-90
2021/04/11 05:29:59;;;;;;;3.50;1.80;;;9.80;99.90;;;;;;5019745;28;20050;-88
2021/04/11 05:32:31;;;;;;;5.78;1.90;;;9.90;99.90;;;;;;5030306;28;20420;-90
2021/04/11 05:35:05;;;;;;;3.03;1.92;;;9.90;99.90;;;;;;5022468;28;20041;-89
2021/04/11 05:38:07;;;;;;;4.53;2.22;;;9.90;99.90;;;;;;5009233;28;20038;-89
2021/04/11 05:40:40;;;;;;;3.77;1.97;;;10.00;99.90;;;;;;5030335;28;20046;-88
2021/04/11 05:43:29;;;;;;;1.95;1.77;;;10.00;99.90;;;;;;5030002;28;20423;-88
2021/04/11 05:46:08;;;;;;;2.63;2.03;;;10.00;99.90;;;;;;5008538;28;20046;-89
2021/04/11 05:48:44;;;;;;;3.40;2.03;;;10.10;99.90;;;;;;5018858;28;20064;-89
2021/04/11 05:51:28;;;;;;;10.13;1.95;;;10.20;99.90;;;;;;5013480;28;20145;-89
2021/04/11 05:54:00;;;;;;;2.22;1.98;;;10.20;99.90;;;;;;5000684;28;20080;-89
2021/04/11 05:56:37;;;;;;;4.43;1.98;;;10.30;99.90;;;;;;5000044;28;20046;-90
2021/04/11 05:59:29;;;;;;;4.18;2.00;;;10.40;99.90;;;;;;5026910;28;20431;-89
2021/04/11 06:02:00;;;;;;;3.08;1.73;;;10.50;99.90;;;;;;5024424;28;20107;-88
2021/04/11 06:05:00;;;;;;;4.28;2.00;;;10.50;99.50;;;;;;4994862;28;20057;-89
2021/04/11 06:07:35;;;;;;;4.38;2.00;;;10.60;99.00;;;;;;5014931;28;20122;-89
2021/04/11 06:10:12;;;;;;;3.88;2.00;;;10.70;99.90;;;;;;5025479;28;20045;-90
2021/04/11 06:12:48;;;;;;;4.22;2.38;;;10.80;98.70;;;;;;5017365;28;20050;-89
2021/04/11 06:15:16;;;;;;;5.57;1.95;;;10.80;98.90;;;;;;5022164;28;20125;-89
2021/04/11 06:17:45;;;;;;;4.28;1.98;;;10.90;97.90;;;;;;5010781;28;20046;-89
2021/04/11 06:20:13;;;;;;;2.67;1.70;;;10.90;97.80;;;;;;5013234;28;20132;-88
2021/04/11 06:23:12;;;;;;;5.13;1.70;;;11.00;98.50;;;;;;5030194;28;20057;-87
2021/04/11 06:25:50;;;;;;;3.53;1.77;;;11.00;98.00;;;;;;5004881;28;20107;-87
2021/04/11 06:28:21;;;;;;;3.58;1.98;;;11.10;97.90;;;;;;5008657;28;20412;-87
2021/04/11 06:31:05;;;;;;;5.57;1.77;;;11.20;97.90;;;;;;5020895;28;20063;-89
2021/04/11 06:33:47;;;;;;;4.07;2.30;;;11.30;98.10;;;;;;5020528;28;20053;-90
2021/04/11 06:36:27;;;;;;;5.20;2.63;;;11.30;98.20;;;;;;5009907;28;20058;-89
2021/04/11 06:39:26;;;;;;;;;;;;;;;;;;;;;
2021/04/11 06:42:06;;;;;;;3.75;2.10;;;11.60;95.30;;;;;;5026119;28;20042;-89
2021/04/11 06:45:03;;;;;;;3.42;1.90;;;11.80;94.40;;;;;;5035286;28;20054;-91
2021/04/11 06:48:15;;;;;;;3.67;1.85;;;11.90;93.60;;;;;;5017578;28;20057;-90
2021/04/11 06:50:53;;;;;;;5.45;1.92;;;12.10;92.60;;;;;;5014631;28;20056;-90
2021/04/11 06:53:45;;;;;;;;;;;12.20;91.40;;;;;;5014549;28;20382;-90
2021/04/11 06:56:39;;;;;;;4.00;1.80;;;12.40;90.30;;;;;;5011293;28;19921;-89
2021/04/11 06:59:46;;;;;;;3.63;1.60;;;12.60;87.80;;;;;;5012423;28;20386;-89
2021/04/11 07:03:04;;;;;;;3.10;1.50;;;12.70;86.00;;;;;;5008443;28;20105;-89
2021/04/11 07:05:40;;;;;;;2.55;1.92;;;12.90;85.00;;;;;;5007592;28;20057;-89
2021/04/11 07:08:21;;;;;;;3.90;1.90;;;13.20;83.20;;;;;;5013767;28;20050;-89
2021/04/11 07:11:13;;;;;;;2.88;1.48;;;13.20;79.50;;;;;;5017180;28;20046;-89
2021/04/11 07:14:19;;;;;;;1.52;1.40;;;13.40;78.20;;;;;;5012536;28;20054;-90
2021/04/11 07:16:57;;;;;;;3.80;1.50;;;13.60;75.50;;;;;;5025397;28;20080;-91
2021/04/11 07:19:48;;;;;;;5.10;1.60;;;13.50;76.50;;;;;;5020827;28;20501;-88
2021/04/11 07:22:15;;;;;;;1.98;1.60;;;13.30;76.90;;;;;;5021263;28;20041;-92
2021/04/11 07:25:23;;;;;;;3.25;1.60;;;13.40;78.20;;;;;;5026138;28;20052;-91
2021/04/11 07:28:22;;;;;;;2.10;1.33;;;13.90;74.60;;;;;;5034740;28;20458;-90
2021/04/11 07:31:26;;;;;;;2.78;1.50;;;14.40;71.80;;;;;;5026158;28;20073;-88
2021/04/11 07:34:22;;;;;;;2.60;1.40;;;14.70;69.30;;;;;;5029639;28;20065;-90
2021/04/11 07:37:19;;;;;;;1.75;1.40;;;14.90;68.30;;;;;;5011411;28;20065;-89
2021/04/11 07:40:28;;;;;;;4.68;1.33;;;15.20;66.90;;;;;;5029407;28;20037;-89
2021/04/11 07:43:33;;;;;;;3.10;1.30;;;15.50;64.20;;;;;;5007228;28;20120;-92
2021/04/11 07:46:12;;;;;;;2.95;1.50;;;15.70;63.20;;;;;;5016535;28;20054;-91
2021/04/11 07:49:13;;;;;;;2.95;1.77;;;15.70;63.40;;;;;;5024492;28;20054;-89
2021/04/11 07:51:55;;;;;;;3.35;1.42;;;16.00;62.20;;;;;;5014788;28;20528;-90
2021/04/11 07:55:03;;;;;;;4.50;1.50;;;16.40;61.60;;;;;;5031752;28;20045;-89
2021/04/11 07:58:05;;;;;;;2.63;1.48;;;16.40;60.10;;;;;;5007582;28;20057;-89
2021/04/11 08:00:55;;;;;;;3.88;1.52;;;16.70;59.80;;;;;;5021423;28;20056;-91
2021/04/11 08:03:29;;;;;;;3.60;1.45;;;17.10;59.00;;;;;;5027268;28;20061;-90
2021/04/11 08:06:19;;;;;;;3.35;1.42;;;17.60;57.70;;;;;;5018788;28;20042;-90
2021/04/11 08:08:55;;;;;;;3.42;1.30;;;17.80;56.90;;;;;;5034107;28;20061;-88
2021/04/11 08:11:41;;;;;;;6.10;1.10;;;17.40;57.10;;;;;;5018133;28;20054;-90
2021/04/11 08:14:37;;;;;;;3.15;1.15;;;16.80;59.00;;;;;;5019359;28;20632;-88
2021/04/11 08:17:57;;;;;;;1.20;1.10;;;16.30;60.00;;;;;;5017014;28;20070;-90
2021/04/11 08:20:46;;;;;;;1.55;1.25;;;16.20;61.40;;;;;;4982414;28;20456;-89
2021/04/11 08:23:37;;;;;;;4.63;1.70;;;16.30;61.10;;;;;;5023737;28;20070;-89
2021/04/11 08:26:40;;;;;;;3.35;1.30;;;16.50;60.50;;;;;;5022020;28;20470;-88
2021/04/11 08:29:11;;;;;;;4.53;1.52;;;16.60;60.20;;;;;;5031111;28;20053;-90
2021/04/11 08:32:11;;;;;;;4.57;1.77;;;16.70;61.60;;;;;;5020578;28;20049;-89
2021/04/11 08:34:52;;;;;;;1.92;1.30;;;16.60;61.60;;;;;;5033582;28;20061;-91
2021/04/11 08:37:44;;;;;;;2.67;1.20;;;16.40;60.00;;;;;;5016201;28;20049;-89
2021/04/11 08:40:25;;;;;;;3.58;1.30;;;15.90;60.70;;;;;;5032389;28;20050;-89
2021/04/11 08:43:04;;;;;;;2.03;1.02;;;15.60;62.50;;;;;;5019367;28;20042;-89
2021/04/11 08:46:08;;;;;;;2.78;1.10;;;15.40;63.10;;;;;;5017694;28;20085;-89
2021/04/11 08:48:46;;;;;;;2.17;1.50;;;15.30;64.50;;;;;;5009467;28;20442;-89
2021/04/11 08:51:32;;;;;;;3.03;1.50;;;15.10;65.10;;;;;;5037788;28;20148;-90
2021/04/11 08:54:23;;;;;;;5.60;1.60;;;15.20;65.90;;;;;;5047460;28;20168;-91
2021/04/11 08:57:15;;;;;;;3.53;1.30;;;15.30;65.60;;;;;;5011731;28;20367;-89
2021/04/11 09:00:25;;;;;;;6.55;1.50;;;15.40;64.90;;;;;;5021712;28;20042;-87
2021/04/11 09:03:08;;;;;;;3.88;1.45;;;15.50;65.10;;;;;;4948249;28;20571;-89
2021/04/11 09:05:46;;;;;;;3.13;1.50;;;15.60;64.60;;;;;;5005839;28;20110;-90
2021/04/11 09:08:41;;;;;;;2.22;1.30;;;15.70;65.20;;;;;;5016910;28;20047;-90
2021/04/11 09:11:27;;;;;;;4.18;1.60;;;16.00;64.50;;;;;;4984269;28;20114;-88
2021/04/11 09:13:59;;;;;;;4.28;1.60;;;16.10;63.10;;;;;;5014252;28;20128;-88
2021/04/11 09:16:58;;;;;;;3.47;1.40;;;16.10;63.10;;;;;;5005079;28;20045;-91
2021/04/11 09:20:04;;;;;;;2.78;1.20;;;16.10;63.00;;;;;;4996932;28;20047;-89
2021/04/11 09:23:02;;;;;;;3.95;1.40;;;16.60;61.90;;;;;;4996130;28;20113;-89
2021/04/11 09:25:34;;;;;;;2.60;1.88;;;16.90;61.00;;;;;;4992926;28;20058;-90
2021/04/11 09:28:46;;;;;;;6.27;1.83;;;16.80;61.10;;;;;;4980288;28;20078;-88
2021/04/11 09:31:28;;;;;;;5.18;1.88;;;16.70;60.00;;;;;;4994780;28;20074;-91
2021/04/11 09:33:54;;;;;;;2.30;1.60;;;17.00;59.60;;;;;;5012108;28;20078;-90
2021/04/11 09:36:33;;;;;;;3.45;1.25;;;17.90;58.30;;;;;;5003711;28;20108;-91
2021/04/11 09:39:15;;;;;;;2.72;1.40;;;18.60;55.10;;;;;;4999029;28;20058;-88
2021/04/11 09:42:08;;;;;;;4.75;1.20;;;18.70;54.70;;;;;;5008201;28;20339;-88
2021/04/11 09:44:54;;;;;;;4.25;1.38;;;18.20;55.30;;;;;;5003455;28;20046;-90
2021/04/11 09:48:07;;;;;;;2.97;1.50;;;17.80;56.30;;;;;;4989832;28;20362;-90
2021/04/11 09:50:55;;;;;;;3.65;1.48;;;18.00;55.90;;;;;;4988244;28;20049;-88
2021/04/11 09:53:43;;;;;;;2.70;1.50;;;18.20;55.20;;;;;;5001853;28;20074;-89
2021/04/11 09:56:51;;;;;;;5.25;1.50;;;19.10;53.90;;;;;;5012842;28;20137;-90
2021/04/11 09:59:42;;;;;;;2.73;1.50;;;19.90;52.30;;;;;;4994001;28;20482;-89
2021/04/11 10:02:35;;;;;;;5.05;1.30;;;20.10;50.10;;;;;;4997488;28;20615;-88
2021/04/11 10:05:15;;;;;;;5.25;1.52;;;20.90;49.20;;;;;;4997508;28;20141;-91
2021/04/11 10:08:07;;;;;;;2.72;1.20;;;21.90;47.40;;;;;;4983109;28;20376;-90
2021/04/11 10:10:58;;;;;;;4.00;1.27;;;21.60;45.40;;;;;;4968259;28;20053;-89
2021/04/11 10:13:34;;;;;;;4.93;1.77;;;21.50;45.70;;;;;;5008217;28;20149;-89
2021/04/11 10:16:23;;;;;;;2.20;1.13;;;21.00;46.40;;;;;;5026060;28;20038;-91
2021/04/11 10:19:05;;;;;;;3.75;1.10;;;20.40;47.30;;;;;;5022774;28;20129;-88
2021/04/11 10:21:51;;;;;;;3.67;1.45;;;20.30;46.50;;;;;;5011820;28;20141;-88
2021/04/11 10:24:45;;;;;;;5.72;1.52;;;19.70;48.10;;;;;;4998117;28;20050;-90
2021/04/11 10:27:40;;;;;;;3.70;1.45;;;18.90;49.10;;;;;;4996544;28;20453;-91
2021/04/11 10:30:10;;;;;;;3.83;1.30;;;18.60;49.80;;;;;;4990790;28;20057;-89
2021/04/11 10:32:46;;;;;;;3.35;1.00;;;18.40;50.50;;;;;;4994446;28;20034;-89
2021/04/11 10:35:27;;;;;;;3.53;1.40;;;18.00;50.80;;;;;;5032735;28;20093;-91
2021/04/11 10:38:26;;;;;;;2.47;1.20;;;17.90;51.60;;;;;;5008513;28;20078;-91
2021/04/11 10:41:10;;;;;;;2.80;1.38;;;18.40;52.20;;;;;;4996655;28;20053;-89
2021/04/11 10:44:02;;;;;;;1.60;1.40;;;19.00;49.70;;;;;;4983039;28;20057;-89
2021/04/11 10:47:06;;;;;;;2.53;1.38;;;18.50;50.80;;;;;;4999388;28;20118;-90
2021/04/11 10:50:00;;;;;;;3.22;1.35;;;18.50;51.90;;;;;;4996377;28;20058;-88
2021/04/11 10:53:06;;;;;;;3.08;1.50;;;18.70;51.40;;;;;;4988665;28;20069;-91
2021/04/11 10:56:00;;;;;;;2.88;1.38;;;18.40;51.60;;;;;;4927242;28;20136;-91
2021/04/11 10:59:10;;;;;;;2.55;1.50;;;18.70;52.10;;;;;;5012703;28;20439;-90
2021/04/11 11:01:48;;;;;;;4.72;1.73;;;18.70;51.10;;;;;;5002196;28;20073;-91
2021/04/11 11:04:32;;;;;;;;;;;;;;;;;;;;;
2021/04/11 11:07:46;;;;;;;;;;;;;;;;;;;;;
2021/04/11 11:10:31;;;;;;;4.55;1.35;;;19.00;52.00;;;;;;5013017;28;20083;-90
2021/04/11 11:13:18;;;;;;;7.38;1.48;;;21.50;47.30;;;;;;5017926;28;20074;-91
2021/04/11 11:16:19;;;;;;;2.90;1.63;;;22.80;44.60;;;;;;5034243;28;20112;-90
2021/04/11 11:19:18;;;;;;;3.33;1.20;;;22.40;42.80;;;;;;5033491;28;20054;-89
2021/04/11 11:22:21;;;;;;;2.45;1.55;;;21.40;44.70;;;;;;5005685;28;20064;-91
2021/04/11 11:25:28;;;;;;;1.98;1.45;;;20.80;47.10;;;;;;5011263;28;20050;-91
2021/04/11 11:28:35;;;;;;;;;;;;;;;;;;;;;
2021/04/11 11:34:51;;;;;;;3.67;2.58;;;24.90;39.50;;;;;;4930744;29;20055;-91
2021/04/11 11:37:46;;;;;;;4.10;1.42;;;26.40;37.60;;;;;;4941351;29;20052;-92
2021/04/11 11:40:46;;;;;;;4.25;1.40;;;26.10;37.10;;;;;;4946109;28;20061;-92
2021/04/11 11:43:34;;;;;;;3.47;1.17;;;26.40;36.10;;;;;;4936971;29;20097;-90
2021/04/11 11:46:26;;;;;;;2.08;1.15;;;26.10;36.40;;;;;;4936248;29;20119;-92
2021/04/11 11:49:24;;;;;;;4.18;1.52;;;26.00;36.70;;;;;;4967930;28;20121;-90
2021/04/11 11:52:48;;;;;;;3.35;1.10;;;25.10;37.50;;;;;;5020118;28;20049;-91
2021/04/11 11:55:24;;;;;;;3.40;1.40;;;24.30;38.60;;;;;;4938267;29;20059;-91
2021/04/11 11:58:13;;;;;;;5.82;1.92;;;23.10;41.00;;;;;;4934156;28;20047;-86
2021/04/11 12:00:43;;;;;;;4.72;1.40;;;23.20;41.30;;;;;;5016658;28;20129;-88
2021/04/11 12:03:19;;;;;;;3.40;1.02;;;23.20;40.80;;;;;;5014279;28;20081;-88
2021/04/11 12:06:09;;;;;;;1.30;1.00;;;23.50;40.40;;;;;;5022681;28;20045;-89
2021/04/11 12:09:02;;;;;;;5.07;1.27;;;23.80;39.60;;;;;;5009869;28;20116;-88
2021/04/11 12:11:33;;;;;;;4.93;1.08;;;23.50;41.40;;;;;;4996283;28;20060;-87
2021/04/11 12:14:17;;;;;;;1.40;1.10;;;24.00;38.90;;;;;;5012155;28;20049;-87
2021/04/11 12:17:24;;;;;;;2.67;0.82;;;24.90;37.50;;;;;;5013209;28;20050;-89
2021/04/11 12:20:01;;;;;;;2.88;0.98;;;25.50;36.50;;;;;;4952242;28;20053;-87
2021/04/11 12:22:45;;;;;;;1.55;1.13;;;26.20;36.40;;;;;;5007513;28;20050;-88
2021/04/11 12:25:18;;;;;;;1.73;1.00;;;25.40;35.60;;;;;;5017093;28;20049;-87
2021/04/11 12:27:50;;;;;;;2.67;1.20;;;24.40;39.10;;;;;;5013757;28;20062;-88
2021/04/11 12:30:26;;;;;;;1.70;1.10;;;24.80;38.10;;;;;;5013600;28;20046;-88
2021/04/11 12:33:17;;;;;;;3.35;1.13;;;25.00;37.60;;;;;;5004497;28;20378;-88
2021/04/11 12:35:54;;;;;;;2.67;1.08;;;23.80;39.20;;;;;;5009418;28;20054;-88
2021/04/11 12:38:36;;;;;;;2.35;0.95;;;23.10;40.30;;;;;;5014358;28;20111;-89
2021/04/11 12:41:21;;;;;;;1.92;1.02;;;21.80;42.60;;;;;;5022792;28;20076;-87
2021/04/11 12:43:58;;;;;;;2.03;1.00;;;20.70;45.90;;;;;;4996511;28;20104;-89
2021/04/11 12:47:00;;;;;;;3.75;0.98;;;20.40;46.40;;;;;;5010608;28;20100;-88
2021/04/11 12:49:39;;;;;;;1.77;1.13;;;20.60;46.50;;;;;;4942221;28;20120;-88
2021/04/11 12:52:15;;;;;;;3.60;0.90;;;21.70;45.70;;;;;;5016451;28;20057;-86
2021/04/11 12:54:59;;;;;;;1.45;0.80;;;22.20;43.60;;;;;;5014999;28;20126;-87
2021/04/11 12:57:31;;;;;;;2.20;0.93;;;22.10;43.90;;;;;;5012216;28;20046;-88
2021/04/11 13:00:20;;;;;;;2.47;0.73;;;21.70;43.70;;;;;;5026837;28;20041;-87
2021/04/11 13:02:59;;;;;;;1.08;0.80;;;20.90;45.40;;;;;;5008448;28;20061;-88
2021/04/11 13:05:42;;;;;;;2.40;0.80;;;20.40;47.30;;;;;;5004322;28;20046;-88
2021/04/11 13:08:26;;;;;;;;;;;20.20;47.10;;;;;;5014806;28;20046;-86
2021/04/11 13:10:58;;;;;;;2.83;0.60;;;20.00;46.80;;;;;;5011558;28;19987;-89
2021/04/11 13:13:45;;;;;;;3.58;0.93;;;20.50;46.70;;;;;;5004937;28;20047;-88
2021/04/11 13:16:24;;;;;;;3.90;1.05;;;21.70;45.00;;;;;;5011063;28;20064;-88
2021/04/11 13:19:05;;;;;;;0.75;0.70;;;21.50;43.80;;;;;;4996870;28;20072;-88
2021/04/11 13:22:01;;;;;;;0.63;0.55;;;21.00;44.90;;;;;;4997904;28;20054;-90
2021/04/11 13:24:56;;;;;;;2.45;1.10;;;20.20;46.70;;;;;;4982598;28;20046;-91
2021/04/11 13:27:41;;;;;;;2.58;0.95;;;19.70;48.30;;;;;;5006974;28;20052;-91
2021/04/11 13:30:25;;;;;;;2.08;0.80;;;19.40;48.40;;;;;;5019107;28;20050;-91
2021/04/11 13:33:05;;;;;;;1.65;0.82;;;19.20;48.90;;;;;;4995467;28;20108;-90
2021/04/11 13:35:44;;;;;;;2.03;1.00;;;19.30;49.70;;;;;;5001501;28;20384;-90
2021/04/11 13:38:27;;;;;;;0.75;0.70;;;19.30;49.20;;;;;;4995318;28;20058;-90
2021/04/11 13:41:11;;;;;;;1.67;0.93;;;19.30;49.10;;;;;;4996797;28;20043;-90
2021/04/11 13:43:51;;;;;;;3.70;1.02;;;19.20;49.40;;;;;;5004353;28;20387;-91
2021/04/11 13:46:42;;;;;;;2.13;0.73;;;19.10;49.40;;;;;;5016868;28;20495;-90
2021/04/11 13:49:36;;;;;;;3.33;1.20;;;19.20;49.70;;;;;;5001021;28;20058;-89
2021/04/11 13:52:11;;;;;;;5.10;1.00;;;19.60;49.20;;;;;;4999350;28;20094;-91
2021/04/11 13:55:05;;;;;;;2.38;1.20;;;19.80;49.10;;;;;;4996118;28;20054;-88
2021/04/11 13:58:09;;;;;;;2.33;1.10;;;20.00;49.40;;;;;;4992230;28;20084;-88
2021/04/11 14:01:17;;;;;;;2.53;1.20;;;20.20;48.20;;;;;;4994093;28;20050;-90
2021/04/11 14:04:00;;;;;;;1.55;0.80;;;20.10;47.30;;;;;;4993634;28;20053;-91
2021/04/11 14:06:53;;;;;;;3.95;0.82;;;20.40;47.30;;;;;;4996390;28;20046;-89
2021/04/11 14:09:22;;;;;;;2.00;0.95;;;20.60;46.90;;;;;;4985187;28;20078;-90
2021/04/11 14:15:08;;;;;;;2.25;1.00;;;20.90;47.10;;;;;;4990816;28;20054;-91
2021/04/11 14:18:03;;;;;;;;;;;;;;;;;;;;;
2021/04/11 14:21:09;;;;;;;1.90;0.80;;;22.60;45.00;;;;;;4924878;29;20055;-92
2021/04/11 14:24:16;;;;;;;;;;;;;;;;;;;;;
2021/04/11 14:27:03;;;;;;;1.60;0.73;;;24.10;42.00;;;;;;4939259;29;20127;-91